Terminal Aerodrome Forecast
Issued by NWS Buffalo, NY

Home | Current Version | Previous Version | Text Only | Print | Product List | Glossary On
Versions: 1 2 3 4 5 6 7 8 9 10 11 12 13 14 15 16 17 18 19 20 21 22 23 24 25
000
FTUS41 KBUF 161120
TAFBUF
TAF
KBUF 161120Z 1612/1712 20005KT P6SM FEW250
     FM162300 21004KT P6SM BKN080
     FM170500 VRB03KT P6SM OVC045
     FM170600 VRB03KT P6SM VCSH OVC045
     FM170900 10004KT 6SM -FZRA OVC035
     FM171000 10005KT 5SM -FZRA OVC035=

USA.gov is the U.S. government's official web portal to all federal, state and local government web resources and services.